CFG161 EDDF-LEPA
Flight info
| Callsign | CFG161 |
|---|---|
| Flight time | 1h 58m |
| Altitude | 35000 |
| Route | ANEKI2L/18 ANEKI Y163 HERBI Y164 MOPAN DCT LUTIX/N0454F370 DCT BENOT DCT NEMOS DCT GEVEA DCT INCUS DCT BALSI DCT RETNO DCT TUPOX DCT MTG DCT DIVKO DCT VATIR DCT PIVUS N852 VERSO L129 LUNIK |
| Aircraft | A321/M-SDE3FGHIRWY/LB1 |
Departure
| Time | 2026-05-05 12:25 |
|---|---|
| Airport | Frankfurt Main Airport (EDDF) |
Arrival
| Time | 2026-05-05 14:23 |
|---|---|
| Airport | Palma de Mallorca Airport (LEPA) |
| Time | Latitude | Longitude | Altitude | Speed | Heading |
|---|---|---|---|---|---|
| 2026-05-05 11:21 | 50.04655 | 8.56810 | 364 ft | 0 kts | 295° |
| 2026-05-05 12:09 | 50.04654 | 8.56813 | 356 ft | 2 kts | 295° |
| 2026-05-05 12:09 | 50.04644 | 8.56849 | 359 ft | 4 kts | 295° |
| 2026-05-05 12:10 | 50.04634 | 8.56882 | 363 ft | 4 kts | 287° |
| 2026-05-05 12:10 | 50.04633 | 8.56918 | 362 ft | 4 kts | 232° |
| 2026-05-05 12:10 | 50.04653 | 8.56937 | 362 ft | 4 kts | 196° |
| 2026-05-05 12:10 | 50.04670 | 8.56946 | 357 ft | 0 kts | 205° |
| 2026-05-05 12:11 | 50.04652 | 8.56933 | 364 ft | 1 kts | 204° |
| 2026-05-05 12:11 | 50.04651 | 8.56933 | 364 ft | 0 kts | 204° |
| 2026-05-05 12:14 | 50.04650 | 8.56932 | 364 ft | 1 kts | 204° |
| 2026-05-05 12:14 | 50.04628 | 8.56920 | 363 ft | 6 kts | 197° |
| 2026-05-05 12:15 | 50.04592 | 8.56906 | 360 ft | 5 kts | 194° |
| 2026-05-05 12:15 | 50.04577 | 8.56900 | 361 ft | 0 kts | 193° |
| 2026-05-05 12:15 | 50.04560 | 8.56894 | 361 ft | 7 kts | 193° |
| 2026-05-05 12:15 | 50.04479 | 8.56857 | 365 ft | 15 kts | 207° |
| 2026-05-05 12:16 | 50.04427 | 8.56726 | 365 ft | 15 kts | 249° |
| 2026-05-05 12:16 | 50.04391 | 8.56574 | 360 ft | 15 kts | 250° |
| 2026-05-05 12:16 | 50.04354 | 8.56419 | 362 ft | 16 kts | 250° |
| 2026-05-05 12:16 | 50.04317 | 8.56262 | 357 ft | 16 kts | 249° |
| 2026-05-05 12:17 | 50.04279 | 8.56105 | 363 ft | 16 kts | 249° |
| 2026-05-05 12:17 | 50.04241 | 8.55946 | 360 ft | 16 kts | 250° |
| 2026-05-05 12:17 | 50.04203 | 8.55785 | 359 ft | 16 kts | 250° |
| 2026-05-05 12:17 | 50.04164 | 8.55622 | 359 ft | 16 kts | 250° |
| 2026-05-05 12:18 | 50.04124 | 8.55459 | 358 ft | 16 kts | 249° |
| 2026-05-05 12:18 | 50.04087 | 8.55302 | 355 ft | 15 kts | 251° |
| 2026-05-05 12:18 | 50.04054 | 8.55161 | 357 ft | 13 kts | 249° |
| 2026-05-05 12:18 | 50.04016 | 8.55007 | 356 ft | 17 kts | 250° |
| 2026-05-05 12:19 | 50.03973 | 8.54824 | 354 ft | 20 kts | 249° |
| 2026-05-05 12:19 | 50.03923 | 8.54620 | 357 ft | 20 kts | 249° |
| 2026-05-05 12:19 | 50.03873 | 8.54408 | 351 ft | 21 kts | 249° |
| 2026-05-05 12:19 | 50.03799 | 8.54218 | 356 ft | 20 kts | 248° |
| 2026-05-05 12:20 | 50.03749 | 8.54010 | 348 ft | 21 kts | 250° |
| 2026-05-05 12:20 | 50.03715 | 8.53871 | 352 ft | 21 kts | 249° |
| 2026-05-05 12:20 | 50.03664 | 8.53660 | 346 ft | 21 kts | 250° |
| 2026-05-05 12:20 | 50.03611 | 8.53447 | 338 ft | 21 kts | 249° |
| 2026-05-05 12:21 | 50.03560 | 8.53237 | 338 ft | 19 kts | 248° |
| 2026-05-05 12:21 | 50.03515 | 8.53047 | 336 ft | 17 kts | 250° |
| 2026-05-05 12:21 | 50.03472 | 8.52873 | 332 ft | 17 kts | 246° |
| 2026-05-05 12:21 | 50.03442 | 8.52768 | 334 ft | 8 kts | 248° |
| 2026-05-05 12:22 | 50.03421 | 8.52686 | 334 ft | 8 kts | 249° |
| 2026-05-05 12:22 | 50.03396 | 8.52609 | 332 ft | 7 kts | 221° |
| 2026-05-05 12:22 | 50.03349 | 8.52595 | 336 ft | 7 kts | 180° |
| 2026-05-05 12:22 | 50.03338 | 8.52595 | 336 ft | 0 kts | 180° |
| 2026-05-05 12:24 | 50.03269 | 8.52595 | 333 ft | 33 kts | 180° |
| 2026-05-05 12:24 | 50.02804 | 8.52600 | 336 ft | 99 kts | 180° |
| 2026-05-05 12:24 | 50.01931 | 8.52607 | 333 ft | 149 kts | 179° |
| 2026-05-05 12:25 | 50.00763 | 8.52622 | 466 ft | 176 kts | 180° |
| 2026-05-05 12:25 | 49.99546 | 8.52659 | 1009 ft | 178 kts | 178° |
| 2026-05-05 12:25 | 49.98302 | 8.52745 | 1594 ft | 183 kts | 177° |
| 2026-05-05 12:25 | 49.96962 | 8.52864 | 1861 ft | 202 kts | 176° |
| 2026-05-05 12:26 | 49.95490 | 8.52985 | 2037 ft | 222 kts | 178° |
| 2026-05-05 12:26 | 49.93907 | 8.53096 | 2549 ft | 232 kts | 178° |
| 2026-05-05 12:26 | 49.92283 | 8.53206 | 3484 ft | 230 kts | 178° |
| 2026-05-05 12:26 | 49.90683 | 8.53314 | 4364 ft | 231 kts | 178° |
| 2026-05-05 12:27 | 49.89072 | 8.53423 | 5234 ft | 232 kts | 178° |
| 2026-05-05 12:27 | 49.87452 | 8.53532 | 6054 ft | 234 kts | 178° |
| 2026-05-05 12:27 | 49.85822 | 8.53640 | 6840 ft | 235 kts | 178° |
| 2026-05-05 12:27 | 49.84198 | 8.53747 | 7573 ft | 238 kts | 178° |
| 2026-05-05 12:28 | 49.82550 | 8.53855 | 8315 ft | 240 kts | 178° |
| 2026-05-05 12:28 | 49.80835 | 8.53971 | 9088 ft | 243 kts | 178° |
| 2026-05-05 12:28 | 49.79140 | 8.54089 | 9833 ft | 245 kts | 178° |
| 2026-05-05 12:28 | 49.77442 | 8.54074 | 10442 ft | 252 kts | 185° |
| 2026-05-05 12:29 | 49.75612 | 8.53834 | 10674 ft | 276 kts | 185° |
| 2026-05-05 12:29 | 49.73622 | 8.53566 | 10880 ft | 299 kts | 185° |
| 2026-05-05 12:29 | 49.71440 | 8.53269 | 11053 ft | 322 kts | 185° |
| 2026-05-05 12:29 | 49.69169 | 8.52965 | 11391 ft | 337 kts | 185° |
| 2026-05-05 12:30 | 49.66810 | 8.52648 | 12053 ft | 343 kts | 185° |
| 2026-05-05 12:30 | 49.64489 | 8.52337 | 12791 ft | 346 kts | 185° |
| 2026-05-05 12:30 | 49.62060 | 8.52016 | 13568 ft | 350 kts | 185° |
| 2026-05-05 12:30 | 49.59620 | 8.51696 | 14258 ft | 353 kts | 185° |
| 2026-05-05 12:31 | 49.57167 | 8.51375 | 14953 ft | 356 kts | 185° |
| 2026-05-05 12:31 | 49.54724 | 8.51058 | 15639 ft | 358 kts | 185° |
| 2026-05-05 12:31 | 49.52192 | 8.50725 | 16336 ft | 361 kts | 185° |
| 2026-05-05 12:31 | 49.49684 | 8.50394 | 17020 ft | 363 kts | 185° |
| 2026-05-05 12:32 | 49.47157 | 8.50060 | 17700 ft | 366 kts | 185° |
| 2026-05-05 12:32 | 49.44621 | 8.49727 | 18336 ft | 369 kts | 185° |
| 2026-05-05 12:32 | 49.42051 | 8.49389 | 18900 ft | 372 kts | 185° |
| 2026-05-05 12:32 | 49.39468 | 8.49048 | 19465 ft | 374 kts | 185° |
| 2026-05-05 12:33 | 49.36863 | 8.48708 | 20035 ft | 377 kts | 185° |
| 2026-05-05 12:33 | 49.34246 | 8.48368 | 20584 ft | 379 kts | 185° |
| 2026-05-05 12:33 | 49.31603 | 8.48025 | 21133 ft | 382 kts | 185° |
| 2026-05-05 12:33 | 49.28950 | 8.47681 | 21677 ft | 384 kts | 185° |
| 2026-05-05 12:34 | 49.26272 | 8.47335 | 22212 ft | 387 kts | 184° |
| 2026-05-05 12:34 | 49.23578 | 8.46989 | 22740 ft | 389 kts | 184° |
| 2026-05-05 12:34 | 49.20871 | 8.46640 | 23257 ft | 392 kts | 184° |
| 2026-05-05 12:34 | 49.18148 | 8.46289 | 23724 ft | 394 kts | 184° |
| 2026-05-05 12:35 | 49.15407 | 8.45934 | 24168 ft | 396 kts | 184° |
| 2026-05-05 12:35 | 49.12648 | 8.45575 | 24621 ft | 398 kts | 184° |
| 2026-05-05 12:35 | 49.09994 | 8.45230 | 25046 ft | 400 kts | 184° |
| 2026-05-05 12:35 | 49.07214 | 8.44863 | 25483 ft | 402 kts | 185° |
| 2026-05-05 12:36 | 49.04458 | 8.44098 | 25906 ft | 405 kts | 192° |
| 2026-05-05 12:36 | 49.01710 | 8.43125 | 26323 ft | 407 kts | 192° |
| 2026-05-05 12:36 | 48.98943 | 8.42155 | 26749 ft | 409 kts | 192° |
| 2026-05-05 12:36 | 48.96169 | 8.41187 | 27144 ft | 411 kts | 191° |
| 2026-05-05 12:37 | 48.93372 | 8.40216 | 27552 ft | 413 kts | 191° |
| 2026-05-05 12:37 | 48.90555 | 8.39243 | 27941 ft | 415 kts | 191° |
| 2026-05-05 12:37 | 48.87732 | 8.38266 | 28329 ft | 417 kts | 191° |
| 2026-05-05 12:37 | 48.84897 | 8.37285 | 28727 ft | 419 kts | 191° |
| 2026-05-05 12:38 | 48.82045 | 8.36297 | 29119 ft | 421 kts | 191° |
| 2026-05-05 12:38 | 48.79219 | 8.35321 | 29500 ft | 423 kts | 191° |
| 2026-05-05 12:38 | 48.76304 | 8.34300 | 29870 ft | 426 kts | 191° |
| 2026-05-05 12:38 | 48.73411 | 8.33255 | 30186 ft | 427 kts | 192° |
| 2026-05-05 12:39 | 48.70528 | 8.32192 | 30624 ft | 426 kts | 192° |
| 2026-05-05 12:39 | 48.67658 | 8.31124 | 31062 ft | 424 kts | 192° |
| 2026-05-05 12:39 | 48.64838 | 8.30076 | 31491 ft | 422 kts | 192° |
| 2026-05-05 12:39 | 48.61991 | 8.29028 | 31936 ft | 420 kts | 192° |
| 2026-05-05 12:40 | 48.59156 | 8.27998 | 32415 ft | 418 kts | 192° |
| 2026-05-05 12:40 | 48.56338 | 8.26980 | 32881 ft | 416 kts | 192° |
| 2026-05-05 12:40 | 48.53524 | 8.25966 | 33325 ft | 414 kts | 192° |
| 2026-05-05 12:40 | 48.50735 | 8.24961 | 33775 ft | 412 kts | 192° |
| 2026-05-05 12:41 | 48.47949 | 8.23953 | 34138 ft | 411 kts | 192° |
| 2026-05-05 12:41 | 48.45175 | 8.22944 | 34445 ft | 411 kts | 192° |
| 2026-05-05 12:41 | 48.42400 | 8.21930 | 34722 ft | 411 kts | 193° |
| 2026-05-05 12:41 | 48.39620 | 8.20913 | 34994 ft | 411 kts | 193° |
| 2026-05-05 12:42 | 48.36836 | 8.19896 | 35258 ft | 412 kts | 193° |
| 2026-05-05 12:42 | 48.34048 | 8.18876 | 35510 ft | 413 kts | 193° |
| 2026-05-05 12:42 | 48.31244 | 8.17852 | 35755 ft | 415 kts | 193° |
| 2026-05-05 12:42 | 48.28436 | 8.16833 | 35857 ft | 415 kts | 193° |
| 2026-05-05 12:43 | 48.22966 | 8.14235 | 35879 ft | 413 kts | 205° |
| 2026-05-05 12:43 | 48.17823 | 8.10395 | 35881 ft | 413 kts | 205° |
| 2026-05-05 12:44 | 48.12668 | 8.06586 | 35884 ft | 414 kts | 205° |
| 2026-05-05 12:44 | 48.07492 | 8.02781 | 35887 ft | 414 kts | 205° |
| 2026-05-05 12:45 | 48.02323 | 7.98982 | 35892 ft | 414 kts | 205° |
| 2026-05-05 12:45 | 47.97153 | 7.95190 | 35894 ft | 414 kts | 205° |
| 2026-05-05 12:46 | 47.91987 | 7.91406 | 35894 ft | 414 kts | 205° |
| 2026-05-05 12:46 | 47.86818 | 7.87628 | 35893 ft | 414 kts | 205° |
| 2026-05-05 12:47 | 47.81648 | 7.83855 | 35900 ft | 414 kts | 205° |
| 2026-05-05 12:47 | 47.76477 | 7.80085 | 35887 ft | 413 kts | 205° |
| 2026-05-05 12:48 | 47.71312 | 7.76335 | 35881 ft | 413 kts | 206° |
| 2026-05-05 12:48 | 47.66143 | 7.72598 | 35881 ft | 413 kts | 205° |
| 2026-05-05 12:49 | 47.60975 | 7.68875 | 35877 ft | 413 kts | 205° |
| 2026-05-05 12:49 | 47.55808 | 7.65134 | 35874 ft | 413 kts | 205° |
| 2026-05-05 12:50 | 47.50655 | 7.61423 | 35876 ft | 412 kts | 206° |
| 2026-05-05 12:50 | 47.45500 | 7.57720 | 35880 ft | 412 kts | 206° |
| 2026-05-05 12:51 | 47.40381 | 7.54059 | 35884 ft | 411 kts | 206° |
| 2026-05-05 12:51 | 47.35229 | 7.50385 | 35880 ft | 411 kts | 206° |
| 2026-05-05 12:52 | 47.30088 | 7.46721 | 35909 ft | 411 kts | 206° |
| 2026-05-05 12:52 | 47.24940 | 7.43049 | 35898 ft | 411 kts | 206° |
| 2026-05-05 12:53 | 47.19776 | 7.39382 | 35899 ft | 412 kts | 207° |
| 2026-05-05 12:53 | 47.15165 | 7.34436 | 35895 ft | 413 kts | 225° |
| 2026-05-05 12:54 | 47.09724 | 7.24530 | 35902 ft | 414 kts | 230° |
| 2026-05-05 12:55 | 47.06127 | 7.17930 | 35907 ft | 414 kts | 230° |
| 2026-05-05 12:55 | 47.02552 | 7.11394 | 35911 ft | 414 kts | 230° |
| 2026-05-05 12:56 | 46.98952 | 7.04807 | 35922 ft | 414 kts | 230° |
| 2026-05-05 12:56 | 46.95351 | 6.98226 | 35927 ft | 414 kts | 230° |
| 2026-05-05 12:57 | 46.91727 | 6.91688 | 35950 ft | 413 kts | 226° |
| 2026-05-05 12:57 | 46.87432 | 6.86159 | 35941 ft | 412 kts | 218° |
| 2026-05-05 12:58 | 46.82987 | 6.80874 | 35937 ft | 412 kts | 218° |
| 2026-05-05 12:58 | 46.78543 | 6.75585 | 35933 ft | 412 kts | 218° |
| 2026-05-05 12:59 | 46.74099 | 6.70301 | 35935 ft | 411 kts | 219° |
| 2026-05-05 12:59 | 46.69665 | 6.65050 | 35942 ft | 410 kts | 219° |
| 2026-05-05 13:00 | 46.63748 | 6.58054 | 35942 ft | 409 kts | 219° |
| 2026-05-05 13:01 | 46.54904 | 6.47648 | 35945 ft | 408 kts | 219° |
| 2026-05-05 13:01 | 46.50501 | 6.42491 | 35955 ft | 409 kts | 218° |
| 2026-05-05 13:02 | 46.46059 | 6.37283 | 35951 ft | 410 kts | 218° |
| 2026-05-05 13:02 | 46.41597 | 6.32072 | 35938 ft | 410 kts | 218° |
| 2026-05-05 13:03 | 46.37153 | 6.26884 | 35945 ft | 410 kts | 219° |
| 2026-05-05 13:03 | 46.32741 | 6.21746 | 35945 ft | 409 kts | 218° |
| 2026-05-05 13:04 | 46.28268 | 6.16581 | 35929 ft | 408 kts | 216° |
| 2026-05-05 13:04 | 46.23207 | 6.12921 | 35928 ft | 410 kts | 197° |
| 2026-05-05 13:05 | 46.17575 | 6.11487 | 35925 ft | 412 kts | 191° |
| 2026-05-05 13:05 | 46.11955 | 6.10245 | 35930 ft | 411 kts | 191° |
| 2026-05-05 13:06 | 46.06294 | 6.08984 | 35951 ft | 411 kts | 191° |
| 2026-05-05 13:06 | 46.00635 | 6.07725 | 35936 ft | 411 kts | 192° |
| 2026-05-05 13:07 | 45.94941 | 6.06463 | 35957 ft | 411 kts | 192° |
| 2026-05-05 13:07 | 45.89333 | 6.05225 | 35930 ft | 410 kts | 192° |
| 2026-05-05 13:08 | 45.83696 | 6.03986 | 35933 ft | 409 kts | 192° |
| 2026-05-05 13:08 | 45.78072 | 6.02747 | 35936 ft | 409 kts | 192° |
| 2026-05-05 13:09 | 45.72450 | 6.01504 | 35937 ft | 408 kts | 192° |
| 2026-05-05 13:09 | 45.66840 | 6.00267 | 35929 ft | 407 kts | 192° |
| 2026-05-05 13:10 | 45.61241 | 5.99032 | 35920 ft | 407 kts | 193° |
| 2026-05-05 13:10 | 45.55644 | 5.97796 | 35925 ft | 407 kts | 193° |
| 2026-05-05 13:11 | 45.50050 | 5.96564 | 35928 ft | 407 kts | 193° |
| 2026-05-05 13:11 | 45.44475 | 5.95216 | 35923 ft | 405 kts | 195° |
| 2026-05-05 13:12 | 45.38977 | 5.93470 | 35929 ft | 404 kts | 198° |
| 2026-05-05 13:12 | 45.33506 | 5.91652 | 35935 ft | 403 kts | 197° |
| 2026-05-05 13:13 | 45.28034 | 5.89905 | 35936 ft | 402 kts | 197° |
| 2026-05-05 13:13 | 45.22575 | 5.88207 | 35925 ft | 402 kts | 197° |
| 2026-05-05 13:14 | 45.17117 | 5.86529 | 35931 ft | 400 kts | 197° |
| 2026-05-05 13:14 | 45.11681 | 5.84856 | 35933 ft | 400 kts | 197° |
| 2026-05-05 13:15 | 45.06252 | 5.83179 | 35929 ft | 399 kts | 197° |
| 2026-05-05 13:15 | 45.00831 | 5.81501 | 35919 ft | 398 kts | 197° |
| 2026-05-05 13:16 | 44.95429 | 5.79836 | 35928 ft | 396 kts | 197° |
| 2026-05-05 13:16 | 44.90043 | 5.78186 | 35929 ft | 395 kts | 197° |
| 2026-05-05 13:17 | 44.84672 | 5.76538 | 35913 ft | 395 kts | 197° |
| 2026-05-05 13:17 | 44.79311 | 5.74894 | 35925 ft | 394 kts | 198° |
| 2026-05-05 13:18 | 44.73964 | 5.73264 | 35924 ft | 393 kts | 197° |
| 2026-05-05 13:18 | 44.68663 | 5.71643 | 35930 ft | 392 kts | 197° |
| 2026-05-05 13:19 | 44.63291 | 5.70015 | 35943 ft | 393 kts | 197° |
| 2026-05-05 13:19 | 44.57979 | 5.68404 | 35937 ft | 393 kts | 197° |
| 2026-05-05 13:20 | 44.52628 | 5.66783 | 35930 ft | 393 kts | 197° |
| 2026-05-05 13:20 | 44.47276 | 5.65161 | 35919 ft | 393 kts | 197° |
| 2026-05-05 13:21 | 44.41926 | 5.63545 | 35928 ft | 394 kts | 197° |
| 2026-05-05 13:21 | 44.36648 | 5.61624 | 35934 ft | 388 kts | 206° |
| 2026-05-05 13:22 | 44.31635 | 5.58848 | 35935 ft | 388 kts | 205° |
| 2026-05-05 13:22 | 44.26613 | 5.56096 | 35918 ft | 387 kts | 205° |
| 2026-05-05 13:23 | 44.21592 | 5.53361 | 35929 ft | 387 kts | 205° |
| 2026-05-05 13:23 | 44.16572 | 5.50626 | 35934 ft | 387 kts | 205° |
| 2026-05-05 13:24 | 44.11555 | 5.47897 | 35935 ft | 387 kts | 205° |
| 2026-05-05 13:24 | 44.06545 | 5.45174 | 35918 ft | 387 kts | 205° |
| 2026-05-05 13:25 | 44.01529 | 5.42445 | 35925 ft | 387 kts | 205° |
| 2026-05-05 13:25 | 43.96512 | 5.39725 | 35930 ft | 387 kts | 205° |
| 2026-05-05 13:26 | 43.91521 | 5.37029 | 35932 ft | 387 kts | 205° |
| 2026-05-05 13:26 | 43.86499 | 5.34313 | 35913 ft | 388 kts | 205° |
| 2026-05-05 13:27 | 43.81475 | 5.31599 | 35939 ft | 388 kts | 205° |
| 2026-05-05 13:27 | 43.76448 | 5.28891 | 35934 ft | 388 kts | 205° |
| 2026-05-05 13:28 | 43.71422 | 5.26188 | 35931 ft | 387 kts | 205° |
| 2026-05-05 13:28 | 43.66395 | 5.23490 | 35914 ft | 388 kts | 205° |
| 2026-05-05 13:29 | 43.61371 | 5.20804 | 35918 ft | 387 kts | 205° |
| 2026-05-05 13:29 | 43.56343 | 5.18120 | 35944 ft | 387 kts | 205° |
| 2026-05-05 13:30 | 43.51322 | 5.15435 | 35927 ft | 387 kts | 205° |
| 2026-05-05 13:30 | 43.46303 | 5.12761 | 35934 ft | 387 kts | 205° |
| 2026-05-05 13:31 | 43.41281 | 5.10104 | 35940 ft | 387 kts | 205° |
| 2026-05-05 13:31 | 43.36552 | 5.06743 | 35938 ft | 381 kts | 217° |
| 2026-05-05 13:32 | 43.32199 | 5.02593 | 35936 ft | 381 kts | 217° |
| 2026-05-05 13:32 | 43.27824 | 4.98485 | 35928 ft | 381 kts | 217° |
| 2026-05-05 13:33 | 43.23451 | 4.94391 | 35971 ft | 380 kts | 217° |
| 2026-05-05 13:33 | 43.19083 | 4.90294 | 35956 ft | 380 kts | 217° |
| 2026-05-05 13:34 | 43.14718 | 4.86203 | 35954 ft | 381 kts | 217° |
| 2026-05-05 13:34 | 43.10341 | 4.82113 | 35934 ft | 380 kts | 217° |
| 2026-05-05 13:35 | 43.05980 | 4.78038 | 35952 ft | 380 kts | 216° |
| 2026-05-05 13:35 | 43.01371 | 4.74460 | 35952 ft | 381 kts | 213° |
| 2026-05-05 13:36 | 42.96734 | 4.70960 | 35952 ft | 381 kts | 213° |
| 2026-05-05 13:36 | 42.92103 | 4.67452 | 35940 ft | 380 kts | 213° |
| 2026-05-05 13:37 | 42.87514 | 4.63972 | 35952 ft | 379 kts | 213° |
| 2026-05-05 13:37 | 42.82897 | 4.60481 | 35954 ft | 379 kts | 213° |
| 2026-05-05 13:38 | 42.78287 | 4.57021 | 35982 ft | 378 kts | 212° |
| 2026-05-05 13:38 | 42.73683 | 4.53559 | 35952 ft | 378 kts | 213° |
| 2026-05-05 13:39 | 42.69073 | 4.50092 | 35951 ft | 379 kts | 212° |
| 2026-05-05 13:39 | 42.64465 | 4.46640 | 35951 ft | 379 kts | 212° |
| 2026-05-05 13:40 | 42.60562 | 4.43723 | 35946 ft | 379 kts | 212° |
| 2026-05-05 13:40 | 42.55949 | 4.40273 | 35937 ft | 379 kts | 212° |
| 2026-05-05 13:41 | 42.51331 | 4.36834 | 35921 ft | 378 kts | 213° |
| 2026-05-05 13:41 | 42.46728 | 4.33403 | 35946 ft | 377 kts | 213° |
| 2026-05-05 13:42 | 42.42135 | 4.29984 | 35952 ft | 376 kts | 213° |
| 2026-05-05 13:42 | 42.37549 | 4.26582 | 35948 ft | 376 kts | 213° |
| 2026-05-05 13:43 | 42.32969 | 4.23185 | 35944 ft | 375 kts | 213° |
| 2026-05-05 13:43 | 42.29067 | 4.20287 | 35928 ft | 374 kts | 213° |
| 2026-05-05 13:44 | 42.24495 | 4.16912 | 35955 ft | 374 kts | 213° |
| 2026-05-05 13:44 | 42.20697 | 4.14116 | 35951 ft | 374 kts | 213° |
| 2026-05-05 13:45 | 42.16133 | 4.10761 | 35943 ft | 373 kts | 213° |
| 2026-05-05 13:45 | 42.11575 | 4.07406 | 35913 ft | 373 kts | 213° |
| 2026-05-05 13:46 | 42.07017 | 4.04054 | 35921 ft | 373 kts | 213° |
| 2026-05-05 13:46 | 42.02467 | 4.00724 | 35465 ft | 371 kts | 213° |
| 2026-05-05 13:47 | 42.00200 | 3.99067 | 34893 ft | 370 kts | 213° |
| 2026-05-05 13:47 | 41.97951 | 3.97425 | 34547 ft | 365 kts | 213° |
| 2026-05-05 13:47 | 41.95723 | 3.95798 | 34311 ft | 365 kts | 213° |
| 2026-05-05 13:47 | 41.93479 | 3.94213 | 33975 ft | 365 kts | 208° |
| 2026-05-05 13:48 | 41.91074 | 3.93098 | 33583 ft | 369 kts | 200° |
| 2026-05-05 13:48 | 41.88522 | 3.92463 | 33211 ft | 375 kts | 197° |
| 2026-05-05 13:48 | 41.85945 | 3.91872 | 32831 ft | 377 kts | 197° |
| 2026-05-05 13:48 | 41.83356 | 3.91270 | 32462 ft | 378 kts | 197° |
| 2026-05-05 13:49 | 41.80759 | 3.90667 | 32098 ft | 380 kts | 197° |
| 2026-05-05 13:49 | 41.78153 | 3.90067 | 31764 ft | 381 kts | 197° |
| 2026-05-05 13:49 | 41.75538 | 3.89469 | 31432 ft | 381 kts | 197° |
| 2026-05-05 13:49 | 41.72925 | 3.88871 | 31110 ft | 380 kts | 197° |
| 2026-05-05 13:50 | 41.70321 | 3.88273 | 30765 ft | 378 kts | 197° |
| 2026-05-05 13:50 | 41.67729 | 3.87677 | 30449 ft | 377 kts | 197° |
| 2026-05-05 13:50 | 41.65148 | 3.87083 | 30136 ft | 376 kts | 198° |
| 2026-05-05 13:50 | 41.62577 | 3.86496 | 29792 ft | 374 kts | 197° |
| 2026-05-05 13:51 | 41.60020 | 3.85913 | 29420 ft | 373 kts | 197° |
| 2026-05-05 13:51 | 41.57467 | 3.85329 | 29060 ft | 371 kts | 197° |
| 2026-05-05 13:51 | 41.54926 | 3.84746 | 28703 ft | 370 kts | 197° |
| 2026-05-05 13:51 | 41.52393 | 3.84167 | 28352 ft | 368 kts | 197° |
| 2026-05-05 13:52 | 41.49871 | 3.83589 | 28000 ft | 367 kts | 197° |
| 2026-05-05 13:52 | 41.47358 | 3.83011 | 27622 ft | 367 kts | 197° |
| 2026-05-05 13:52 | 41.44850 | 3.82434 | 27285 ft | 366 kts | 197° |
| 2026-05-05 13:52 | 41.42346 | 3.81858 | 26949 ft | 365 kts | 197° |
| 2026-05-05 13:53 | 41.39846 | 3.81282 | 26625 ft | 364 kts | 197° |
| 2026-05-05 13:53 | 41.37358 | 3.80711 | 26309 ft | 362 kts | 197° |
| 2026-05-05 13:53 | 41.34883 | 3.80147 | 25996 ft | 360 kts | 197° |
| 2026-05-05 13:53 | 41.32415 | 3.79589 | 25670 ft | 359 kts | 197° |
| 2026-05-05 13:54 | 41.29960 | 3.79031 | 25360 ft | 357 kts | 197° |
| 2026-05-05 13:54 | 41.27514 | 3.78473 | 25022 ft | 357 kts | 196° |
| 2026-05-05 13:54 | 41.25062 | 3.77912 | 24713 ft | 356 kts | 196° |
| 2026-05-05 13:54 | 41.22624 | 3.77357 | 24404 ft | 356 kts | 196° |
| 2026-05-05 13:55 | 41.20182 | 3.76805 | 24110 ft | 355 kts | 196° |
| 2026-05-05 13:55 | 41.17750 | 3.76256 | 23813 ft | 354 kts | 196° |
| 2026-05-05 13:55 | 41.15345 | 3.75621 | 23518 ft | 350 kts | 201° |
| 2026-05-05 13:55 | 41.13064 | 3.74565 | 23165 ft | 345 kts | 206° |
| 2026-05-05 13:56 | 41.10829 | 3.73398 | 22807 ft | 345 kts | 206° |
| 2026-05-05 13:56 | 41.08603 | 3.72240 | 22451 ft | 344 kts | 206° |
| 2026-05-05 13:56 | 41.06376 | 3.71087 | 22081 ft | 343 kts | 206° |
| 2026-05-05 13:56 | 41.04179 | 3.69953 | 21751 ft | 343 kts | 206° |
| 2026-05-05 13:57 | 41.01955 | 3.68809 | 21406 ft | 343 kts | 206° |
| 2026-05-05 13:57 | 40.99735 | 3.67671 | 21066 ft | 342 kts | 206° |
| 2026-05-05 13:57 | 40.97520 | 3.66536 | 20742 ft | 341 kts | 206° |
| 2026-05-05 13:57 | 40.95315 | 3.65403 | 20415 ft | 340 kts | 206° |
| 2026-05-05 13:58 | 40.93109 | 3.64269 | 20096 ft | 339 kts | 206° |
| 2026-05-05 13:58 | 40.90912 | 3.63142 | 19767 ft | 338 kts | 205° |
| 2026-05-05 13:58 | 40.88721 | 3.62022 | 19463 ft | 337 kts | 205° |
| 2026-05-05 13:58 | 40.86533 | 3.60900 | 19150 ft | 337 kts | 205° |
| 2026-05-05 13:59 | 40.82177 | 3.58671 | 18540 ft | 335 kts | 205° |
| 2026-05-05 13:59 | 40.80004 | 3.57559 | 18220 ft | 334 kts | 205° |
| 2026-05-05 14:00 | 40.75679 | 3.55355 | 17526 ft | 332 kts | 205° |
| 2026-05-05 14:00 | 40.73530 | 3.54262 | 17191 ft | 330 kts | 205° |
| 2026-05-05 14:00 | 40.71393 | 3.53174 | 16790 ft | 329 kts | 205° |
| 2026-05-05 14:00 | 40.69262 | 3.52091 | 16428 ft | 327 kts | 204° |
| 2026-05-05 14:01 | 40.67140 | 3.51011 | 16175 ft | 326 kts | 204° |
| 2026-05-05 14:01 | 40.65027 | 3.49932 | 15918 ft | 325 kts | 204° |
| 2026-05-05 14:01 | 40.62919 | 3.48855 | 15682 ft | 324 kts | 204° |
| 2026-05-05 14:01 | 40.60819 | 3.47785 | 15426 ft | 323 kts | 204° |
| 2026-05-05 14:02 | 40.58720 | 3.46723 | 15176 ft | 323 kts | 204° |
| 2026-05-05 14:02 | 40.56626 | 3.45666 | 14932 ft | 322 kts | 204° |
| 2026-05-05 14:02 | 40.54541 | 3.44611 | 14689 ft | 321 kts | 204° |
| 2026-05-05 14:02 | 40.52464 | 3.43558 | 14447 ft | 320 kts | 204° |
| 2026-05-05 14:03 | 40.50387 | 3.42507 | 14205 ft | 319 kts | 203° |
| 2026-05-05 14:03 | 40.48347 | 3.41477 | 13973 ft | 318 kts | 203° |
| 2026-05-05 14:03 | 40.46255 | 3.40423 | 13733 ft | 317 kts | 202° |
| 2026-05-05 14:03 | 40.44126 | 3.39642 | 13465 ft | 319 kts | 193° |
| 2026-05-05 14:04 | 40.41909 | 3.39378 | 13184 ft | 322 kts | 183° |
| 2026-05-05 14:04 | 40.39664 | 3.39496 | 12923 ft | 323 kts | 181° |
| 2026-05-05 14:04 | 40.37420 | 3.39629 | 12661 ft | 323 kts | 181° |
| 2026-05-05 14:04 | 40.35178 | 3.39757 | 12406 ft | 322 kts | 181° |
| 2026-05-05 14:05 | 40.32973 | 3.39883 | 12156 ft | 321 kts | 181° |
| 2026-05-05 14:05 | 40.30714 | 3.40011 | 11899 ft | 321 kts | 181° |
| 2026-05-05 14:05 | 40.28489 | 3.40134 | 11647 ft | 320 kts | 180° |
| 2026-05-05 14:05 | 40.26295 | 3.40255 | 11403 ft | 319 kts | 180° |
| 2026-05-05 14:06 | 40.24050 | 3.40381 | 11147 ft | 318 kts | 180° |
| 2026-05-05 14:06 | 40.21867 | 3.40504 | 10897 ft | 318 kts | 180° |
| 2026-05-05 14:06 | 40.19660 | 3.40631 | 10648 ft | 318 kts | 180° |
| 2026-05-05 14:06 | 40.17451 | 3.40757 | 10407 ft | 318 kts | 180° |
| 2026-05-05 14:07 | 40.15240 | 3.40882 | 10169 ft | 318 kts | 180° |
| 2026-05-05 14:07 | 40.13036 | 3.41005 | 9929 ft | 317 kts | 180° |
| 2026-05-05 14:07 | 40.10869 | 3.41128 | 9766 ft | 305 kts | 180° |
| 2026-05-05 14:07 | 40.08794 | 3.41248 | 9625 ft | 292 kts | 180° |
| 2026-05-05 14:08 | 40.06798 | 3.41365 | 9505 ft | 283 kts | 180° |
| 2026-05-05 14:08 | 40.04842 | 3.41478 | 9373 ft | 281 kts | 180° |
| 2026-05-05 14:08 | 40.02893 | 3.41586 | 9243 ft | 280 kts | 180° |
| 2026-05-05 14:08 | 40.00948 | 3.41692 | 9116 ft | 279 kts | 180° |
| 2026-05-05 14:09 | 39.99008 | 3.41799 | 8978 ft | 279 kts | 180° |
| 2026-05-05 14:09 | 39.97071 | 3.41906 | 8845 ft | 278 kts | 180° |
| 2026-05-05 14:09 | 39.95144 | 3.42013 | 8714 ft | 277 kts | 180° |
| 2026-05-05 14:09 | 39.93220 | 3.42119 | 8588 ft | 276 kts | 180° |
| 2026-05-05 14:10 | 39.91298 | 3.42223 | 8460 ft | 276 kts | 180° |
| 2026-05-05 14:10 | 39.89380 | 3.42327 | 8333 ft | 276 kts | 180° |
| 2026-05-05 14:10 | 39.87466 | 3.42431 | 8215 ft | 275 kts | 180° |
| 2026-05-05 14:10 | 39.85554 | 3.42536 | 8089 ft | 275 kts | 180° |
| 2026-05-05 14:11 | 39.83640 | 3.42644 | 7965 ft | 275 kts | 180° |
| 2026-05-05 14:11 | 39.81733 | 3.42754 | 7837 ft | 274 kts | 180° |
| 2026-05-05 14:11 | 39.79829 | 3.42866 | 7712 ft | 274 kts | 180° |
| 2026-05-05 14:11 | 39.77926 | 3.42980 | 7588 ft | 273 kts | 180° |
| 2026-05-05 14:12 | 39.76027 | 3.43091 | 7463 ft | 273 kts | 180° |
| 2026-05-05 14:12 | 39.74133 | 3.43173 | 7334 ft | 272 kts | 186° |
| 2026-05-05 14:12 | 39.72337 | 3.42574 | 7214 ft | 265 kts | 210° |
| 2026-05-05 14:12 | 39.70929 | 3.41088 | 7092 ft | 262 kts | 233° |
| 2026-05-05 14:13 | 39.70114 | 3.38999 | 6969 ft | 261 kts | 255° |
| 2026-05-05 14:13 | 39.69982 | 3.36653 | 6860 ft | 263 kts | 271° |
| 2026-05-05 14:13 | 39.70066 | 3.34271 | 6730 ft | 263 kts | 271° |
| 2026-05-05 14:13 | 39.70149 | 3.31906 | 6608 ft | 262 kts | 271° |
| 2026-05-05 14:14 | 39.70228 | 3.29578 | 6470 ft | 252 kts | 270° |
| 2026-05-05 14:14 | 39.70301 | 3.27352 | 6362 ft | 241 kts | 271° |
| 2026-05-05 14:14 | 39.70369 | 3.25221 | 6240 ft | 231 kts | 271° |
| 2026-05-05 14:14 | 39.70432 | 3.23180 | 6105 ft | 221 kts | 270° |
| 2026-05-05 14:15 | 39.70490 | 3.21209 | 5981 ft | 217 kts | 271° |
| 2026-05-05 14:15 | 39.70547 | 3.19245 | 5850 ft | 218 kts | 270° |
| 2026-05-05 14:15 | 39.70604 | 3.17274 | 5722 ft | 217 kts | 270° |
| 2026-05-05 14:15 | 39.70664 | 3.15320 | 5598 ft | 216 kts | 270° |
| 2026-05-05 14:16 | 39.70724 | 3.13367 | 5466 ft | 218 kts | 270° |
| 2026-05-05 14:16 | 39.70783 | 3.11404 | 5342 ft | 216 kts | 270° |
| 2026-05-05 14:16 | 39.70771 | 3.09468 | 5216 ft | 213 kts | 260° |
| 2026-05-05 14:16 | 39.70328 | 3.07633 | 5090 ft | 215 kts | 242° |
| 2026-05-05 14:17 | 39.69557 | 3.05974 | 4970 ft | 214 kts | 239° |
| 2026-05-05 14:17 | 39.68805 | 3.04383 | 4871 ft | 201 kts | 239° |
| 2026-05-05 14:17 | 39.68086 | 3.02850 | 4664 ft | 197 kts | 239° |
| 2026-05-05 14:17 | 39.67378 | 3.01340 | 4413 ft | 194 kts | 239° |
| 2026-05-05 14:18 | 39.66684 | 2.99858 | 4156 ft | 192 kts | 239° |
| 2026-05-05 14:18 | 39.65987 | 2.98372 | 3902 ft | 193 kts | 239° |
| 2026-05-05 14:18 | 39.65297 | 2.96900 | 3640 ft | 189 kts | 239° |
| 2026-05-05 14:18 | 39.64614 | 2.95444 | 3403 ft | 190 kts | 239° |
| 2026-05-05 14:19 | 39.63920 | 2.93966 | 3145 ft | 193 kts | 238° |
| 2026-05-05 14:19 | 39.63222 | 2.92480 | 2900 ft | 191 kts | 238° |
| 2026-05-05 14:19 | 39.62534 | 2.91015 | 2643 ft | 190 kts | 237° |
| 2026-05-05 14:19 | 39.61854 | 2.89569 | 2409 ft | 183 kts | 237° |
| 2026-05-05 14:20 | 39.61223 | 2.88225 | 2163 ft | 166 kts | 236° |
| 2026-05-05 14:20 | 39.60653 | 2.87012 | 1954 ft | 151 kts | 237° |
| 2026-05-05 14:20 | 39.60129 | 2.85900 | 1753 ft | 143 kts | 237° |
| 2026-05-05 14:20 | 39.59617 | 2.84815 | 1565 ft | 142 kts | 237° |
| 2026-05-05 14:21 | 39.59107 | 2.83734 | 1370 ft | 140 kts | 236° |
| 2026-05-05 14:21 | 39.58605 | 2.82668 | 1230 ft | 136 kts | 237° |
| 2026-05-05 14:21 | 39.58110 | 2.81614 | 1030 ft | 138 kts | 236° |
| 2026-05-05 14:21 | 39.57609 | 2.80550 | 803 ft | 135 kts | 236° |
| 2026-05-05 14:22 | 39.57116 | 2.79505 | 623 ft | 137 kts | 236° |
| 2026-05-05 14:22 | 39.56619 | 2.78464 | 459 ft | 134 kts | 236° |
| 2026-05-05 14:22 | 39.56128 | 2.77424 | 271 ft | 136 kts | 237° |
| 2026-05-05 14:22 | 39.55645 | 2.76388 | 119 ft | 134 kts | 237° |
| 2026-05-05 14:23 | 39.55177 | 2.75383 | 51 ft | 121 kts | 236° |
| 2026-05-05 14:23 | 39.54786 | 2.74569 | 37 ft | 84 kts | 238° |
| 2026-05-05 14:23 | 39.54568 | 2.74108 | 38 ft | 39 kts | 237° |
| 2026-05-05 14:23 | 39.54449 | 2.73853 | 38 ft | 19 kts | 237° |
| 2026-05-05 14:24 | 39.54443 | 2.73763 | 38 ft | 8 kts | 306° |
| 2026-05-05 14:24 | 39.54490 | 2.73719 | 38 ft | 9 kts | 329° |
| 2026-05-05 14:24 | 39.54501 | 2.73711 | 38 ft | 0 kts | 329° |
| 2026-05-05 14:29 | 39.54515 | 2.73700 | 38 ft | 7 kts | 329° |
| 2026-05-05 14:29 | 39.54579 | 2.73652 | 38 ft | 12 kts | 329° |
| 2026-05-05 14:29 | 39.54624 | 2.73569 | 37 ft | 11 kts | 294° |
| 2026-05-05 14:29 | 39.54683 | 2.73507 | 38 ft | 11 kts | 328° |
| 2026-05-05 14:30 | 39.54721 | 2.73468 | 38 ft | 4 kts | 288° |
| 2026-05-05 14:30 | 39.54714 | 2.73436 | 38 ft | 4 kts | 247° |
| 2026-05-05 14:30 | 39.54701 | 2.73404 | 38 ft | 4 kts | 240° |
| 2026-05-05 14:30 | 39.54696 | 2.73393 | 38 ft | 0 kts | 240° |